createdAt,value
2019-05-16T00:00:58.923Z,3.72
2019-05-16T00:03:28.278Z,4.05
2019-05-16T00:05:58.389Z,3.25
2019-05-16T00:08:28.526Z,3.85
2019-05-16T00:10:58.274Z,3.40
2019-05-16T00:13:28.169Z,3.95
2019-05-16T00:15:58.704Z,3.87
2019-05-16T00:18:28.491Z,3.92
2019-05-16T00:20:58.495Z,3.92
2019-05-16T00:23:28.836Z,3.87
2019-05-16T00:25:58.803Z,3.67
2019-05-16T00:28:28.643Z,4.28
2019-05-16T00:30:59.147Z,3.83
2019-05-16T00:33:28.755Z,4.00
2019-05-16T00:36:05.138Z,4.08
2019-05-16T00:38:28.991Z,3.80
2019-05-16T00:40:59.042Z,3.98
2019-05-16T00:43:28.941Z,3.95
2019-05-16T00:45:58.937Z,3.85
2019-05-16T00:48:28.878Z,3.77
2019-05-16T00:50:58.610Z,4.22
2019-05-16T00:53:28.960Z,3.87
2019-05-16T00:55:58.698Z,4.35
2019-05-16T00:58:28.825Z,3.65
2019-05-16T01:00:59.347Z,4.20
2019-05-16T01:03:29.234Z,4.20
2019-05-16T01:05:59.245Z,3.72
2019-05-16T01:08:28.959Z,3.70
2019-05-16T01:10:58.815Z,3.47
2019-05-16T01:13:29.024Z,3.62
2019-05-16T01:15:58.334Z,3.50
2019-05-16T01:18:28.688Z,3.80
2019-05-16T01:20:58.706Z,3.80
2019-05-16T01:23:28.362Z,3.92
2019-05-16T01:25:58.901Z,4.12
2019-05-16T01:28:28.530Z,4.05
2019-05-16T01:30:58.110Z,3.52
2019-05-16T01:33:28.060Z,3.70
2019-05-16T01:35:58.558Z,3.70
2019-05-16T01:38:28.469Z,4.05
2019-05-16T01:40:58.401Z,3.75
2019-05-16T01:43:28.360Z,4.08
2019-05-16T01:45:57.978Z,4.17
2019-05-16T01:48:29.287Z,3.60
2019-05-16T01:50:58.460Z,3.87
2019-05-16T01:53:28.014Z,3.90
2019-05-16T01:55:58.027Z,3.52
2019-05-16T01:58:29.025Z,3.60
2019-05-16T02:01:11.686Z,3.92
2019-05-16T02:03:29.799Z,3.33
2019-05-16T02:05:59.121Z,3.47
2019-05-16T02:08:28.759Z,3.95
2019-05-16T02:10:58.486Z,3.20
2019-05-16T02:13:28.635Z,3.80
2019-05-16T02:15:59.309Z,3.67
2019-05-16T02:18:29.017Z,3.92
2019-05-16T02:21:01.308Z,3.55
2019-05-16T02:23:29.478Z,3.30
2019-05-16T02:25:58.750Z,3.15
2019-05-16T02:28:36.103Z,3.85
2019-05-16T02:31:01.286Z,4.00
2019-05-16T02:33:31.627Z,3.25
2019-05-16T02:36:01.785Z,3.10
2019-05-16T02:38:31.872Z,3.70
2019-05-16T02:41:03.247Z,3.50
2019-05-16T02:43:32.206Z,3.72
2019-05-16T02:46:01.616Z,3.90
2019-05-16T02:48:31.599Z,3.90
2019-05-16T02:51:02.159Z,3.60
2019-05-16T02:53:31.507Z,3.90
2019-05-16T02:56:01.617Z,3.98
2019-05-16T02:58:31.392Z,3.92
2019-05-16T03:01:01.971Z,4.10
2019-05-16T03:03:31.937Z,3.70
2019-05-16T03:06:02.567Z,3.40
2019-05-16T03:08:32.873Z,3.58
2019-05-16T03:11:03.109Z,3.70
2019-05-16T03:13:36.192Z,3.67
2019-05-16T03:16:11.727Z,4.05
2019-05-16T03:18:41.490Z,3.87
2019-05-16T03:21:12.607Z,4.22
2019-05-16T03:23:42.319Z,3.65
2019-05-16T03:26:12.069Z,4.25
2019-05-16T03:28:41.604Z,3.42
2019-05-16T03:31:15.071Z,3.45
2019-05-16T03:33:50.536Z,3.50
2019-05-16T03:36:14.831Z,3.35
2019-05-16T03:38:43.851Z,3.80
2019-05-16T03:41:13.058Z,3.80
2019-05-16T03:43:42.336Z,3.98
2019-05-16T03:46:13.434Z,3.70
2019-05-16T03:48:43.073Z,3.83
2019-05-16T03:51:12.317Z,3.58
2019-05-16T03:53:41.578Z,3.80
2019-05-16T03:56:11.359Z,3.50
2019-05-16T03:58:41.528Z,3.95
2019-05-16T04:01:11.651Z,3.75
2019-05-16T04:03:41.565Z,3.80
2019-05-16T04:06:12.031Z,4.08
2019-05-16T04:08:41.654Z,4.10
2019-05-16T04:11:11.822Z,3.85
2019-05-16T04:13:41.604Z,4.08
2019-05-16T04:16:12.048Z,3.55
2019-05-16T04:18:42.140Z,3.77
2019-05-16T04:21:11.997Z,4.05
2019-05-16T04:23:42.071Z,3.35
2019-05-16T04:26:12.174Z,3.95
2019-05-16T04:28:41.687Z,3.90
2019-05-16T04:31:11.315Z,3.67
2019-05-16T04:33:41.509Z,4.15
2019-05-16T04:36:11.269Z,3.75
2019-05-16T04:38:46.144Z,4.08
2019-05-16T04:41:11.926Z,3.60
2019-05-16T04:44:04.355Z,3.85
2019-05-16T04:46:31.623Z,3.52
2019-05-16T04:49:01.683Z,3.87
2019-05-16T04:51:31.327Z,3.33
2019-05-16T04:54:02.462Z,3.50
2019-05-16T04:56:31.679Z,3.58
2019-05-16T04:59:01.656Z,3.72
2019-05-16T05:01:31.001Z,3.87
2019-05-16T05:04:10.178Z,3.50
2019-05-16T05:06:31.582Z,3.50
2019-05-16T05:09:03.381Z,3.27
2019-05-16T05:11:31.994Z,3.67
2019-05-16T05:14:01.314Z,2.98
2019-05-16T05:16:30.736Z,3.40
2019-05-16T05:19:00.476Z,2.60
2019-05-16T05:21:31.386Z,3.00
2019-05-16T05:24:00.812Z,3.10
2019-05-16T05:26:30.556Z,3.25
2019-05-16T05:28:59.943Z,2.40
2019-05-16T05:31:34.455Z,3.05
2019-05-16T05:34:01.344Z,3.27
2019-05-16T05:36:30.798Z,2.60
2019-05-16T05:39:08.924Z,2.70
2019-05-16T05:41:30.969Z,2.62
2019-05-16T05:44:00.292Z,2.60
2019-05-16T05:46:31.641Z,2.85
2019-05-16T05:49:01.284Z,3.08
2019-05-16T05:51:30.612Z,3.08
2019-05-16T05:54:00.214Z,2.83
2019-05-16T05:56:30.496Z,3.27
2019-05-16T05:59:01.514Z,2.75
2019-05-16T06:01:31.506Z,2.60
2019-05-16T06:04:01.062Z,6.33
2019-05-16T06:06:30.522Z,9.95
2019-05-16T06:09:00.699Z,3.12
2019-05-16T06:11:30.779Z,2.58
2019-05-16T06:14:00.537Z,3.15
2019-05-16T06:16:30.816Z,2.83
2019-05-16T06:19:00.995Z,3.02
2019-05-16T06:21:33.554Z,2.85
2019-05-16T06:24:01.550Z,2.60
2019-05-16T06:26:31.671Z,2.60
2019-05-16T06:29:01.632Z,2.52
2019-05-16T06:31:31.438Z,2.62
2019-05-16T06:34:07.977Z,2.72
2019-05-16T06:36:32.137Z,2.45
2019-05-16T06:39:01.491Z,2.42
2019-05-16T06:41:32.295Z,2.17
2019-05-16T06:44:01.719Z,2.85
2019-05-16T06:46:31.105Z,2.33
2019-05-16T06:49:00.515Z,2.67
2019-05-16T06:51:30.592Z,2.52
2019-05-16T06:54:00.541Z,2.35
2019-05-16T06:56:30.863Z,1.70
2019-05-16T06:59:00.896Z,1.80
2019-05-16T07:01:30.307Z,1.80
2019-05-16T07:04:00.137Z,2.00
2019-05-16T07:06:50.894Z,1.90
2019-05-16T07:09:01.158Z,1.70
2019-05-16T07:11:30.751Z,1.80
2019-05-16T07:14:00.617Z,1.95
2019-05-16T07:16:30.128Z,2.50
2019-05-16T07:19:00.868Z,1.92
2019-05-16T07:21:31.218Z,1.70
2019-05-16T07:24:00.660Z,2.60
2019-05-16T07:26:30.988Z,1.85
2019-05-16T07:29:00.705Z,1.60
2019-05-16T07:31:30.182Z,1.85
2019-05-16T07:34:00.865Z,1.72
2019-05-16T07:36:31.496Z,1.52
2019-05-16T07:39:00.973Z,1.70
2019-05-16T07:41:31.034Z,1.52
2019-05-16T07:44:01.070Z,1.57
2019-05-16T07:46:31.509Z,1.77
2019-05-16T07:49:01.382Z,1.70
2019-05-16T07:51:31.139Z,1.50
2019-05-16T07:54:00.468Z,1.80
2019-05-16T07:56:31.034Z,1.65
2019-05-16T07:59:00.992Z,1.55
2019-05-16T08:01:30.820Z,1.47
2019-05-16T08:04:00.184Z,1.67
2019-05-16T08:06:30.992Z,2.20
2019-05-16T08:09:00.449Z,2.52
2019-05-16T08:11:30.409Z,2.42
2019-05-16T08:14:00.991Z,2.52
2019-05-16T08:16:30.849Z,2.10
2019-05-16T08:19:00.875Z,1.95
2019-05-16T08:21:31.038Z,2.20
2019-05-16T08:24:07.337Z,1.72
2019-05-16T08:26:32.959Z,1.87
2019-05-16T08:29:05.271Z,1.87
2019-05-16T08:31:34.598Z,2.05
2019-05-16T08:34:03.937Z,2.22
2019-05-16T08:36:33.135Z,2.05
2019-05-16T08:39:02.344Z,1.55
2019-05-16T08:41:31.844Z,1.60
2019-05-16T08:44:01.512Z,2.40
2019-05-16T08:46:32.375Z,1.52
2019-05-16T08:49:02.009Z,1.80
2019-05-16T08:51:33.349Z,1.30
2019-05-16T08:54:02.225Z,2.17
2019-05-16T08:56:32.013Z,2.35
2019-05-16T08:59:03.255Z,1.92
2019-05-16T09:01:34.929Z,1.70
2019-05-16T09:04:03.388Z,1.82
2019-05-16T09:06:32.616Z,1.77
2019-05-16T09:09:15.567Z,1.85
2019-05-16T09:14:03.945Z,2.08
2019-05-16T09:16:33.685Z,1.77
2019-05-16T09:18:38.498Z,2.02
2019-05-16T09:19:02.973Z,1.87
2019-05-16T09:21:32.210Z,2.17
2019-05-16T09:24:01.532Z,1.70
2019-05-16T09:26:30.904Z,2.00
2019-05-16T09:29:00.189Z,2.17
2019-05-16T09:31:29.556Z,1.90
2019-05-16T09:33:58.845Z,1.77
2019-05-16T09:36:28.337Z,1.80
2019-05-16T09:38:57.974Z,2.05
2019-05-16T09:41:46.200Z,1.75
2019-05-16T09:43:59.224Z,1.80
2019-05-16T09:46:28.870Z,1.70
2019-05-16T09:49:15.544Z,1.80
2019-05-16T09:51:29.400Z,1.90
2019-05-16T09:53:58.640Z,2.00
2019-05-16T09:56:27.917Z,1.77
2019-05-16T09:58:57.545Z,1.65
2019-05-16T10:01:27.656Z,1.65
2019-05-16T10:03:57.132Z,1.70
2019-05-16T10:06:27.621Z,1.52
2019-05-16T10:08:57.093Z,1.70
2019-05-16T10:11:30.869Z,1.35
2019-05-16T10:13:57.346Z,1.52
2019-05-16T10:16:27.488Z,1.50
2019-05-16T10:18:57.037Z,1.67
2019-05-16T10:21:27.173Z,1.85
2019-05-16T10:23:56.855Z,2.12
2019-05-16T10:26:27.675Z,1.70
2019-05-16T10:28:58.093Z,1.75
2019-05-16T10:31:41.300Z,1.85
2019-05-16T10:33:58.846Z,1.85
2019-05-16T10:36:28.322Z,1.87
2019-05-16T10:38:59.037Z,1.50
2019-05-16T10:41:28.724Z,1.87
2019-05-16T10:43:57.948Z,1.75
2019-05-16T10:46:27.316Z,1.70
2019-05-16T10:48:57.806Z,1.75
2019-05-16T10:51:27.316Z,1.60
2019-05-16T10:54:09.178Z,1.75
2019-05-16T10:56:27.607Z,1.62
2019-05-16T10:59:35.040Z,1.77
2019-05-16T11:01:31.281Z,1.72
2019-05-16T11:03:59.777Z,1.77
2019-05-16T11:06:29.561Z,1.65
2019-05-16T11:08:58.966Z,1.82
2019-05-16T11:11:28.267Z,1.80
2019-05-16T11:13:57.542Z,1.50
2019-05-16T11:16:27.486Z,1.75
2019-05-16T11:19:14.370Z,2.60
2019-05-16T11:21:31.050Z,1.75
2019-05-16T11:24:00.616Z,1.70
2019-05-16T11:26:30.211Z,2.02
2019-05-16T11:28:59.553Z,2.00
2019-05-16T11:31:29.364Z,2.05
2019-05-16T11:33:58.617Z,2.20
2019-05-16T11:36:28.019Z,1.87
2019-05-16T11:39:01.604Z,2.10
2019-05-16T11:41:28.260Z,1.85
2019-05-16T11:43:57.555Z,1.70
2019-05-16T11:46:28.111Z,2.20
2019-05-16T11:48:58.036Z,2.20
2019-05-16T11:51:27.421Z,2.80
2019-05-16T11:54:00.039Z,2.30
2019-05-16T11:56:27.747Z,2.22
2019-05-16T11:58:57.149Z,2.00
2019-05-16T12:01:27.547Z,2.02
2019-05-16T12:03:57.637Z,2.00
2019-05-16T12:06:27.118Z,1.82
2019-05-16T12:08:56.412Z,1.80
2019-05-16T12:11:27.414Z,1.95
2019-05-16T12:13:56.965Z,2.00
2019-05-16T12:16:27.579Z,2.05
2019-05-16T12:18:57.240Z,2.35
2019-05-16T12:21:27.442Z,1.90
2019-05-16T12:23:56.914Z,2.27
2019-05-16T12:26:28.176Z,2.27
2019-05-16T12:28:57.430Z,2.17
2019-05-16T12:31:26.750Z,2.40
2019-05-16T12:33:59.748Z,2.22
2019-05-16T12:36:27.062Z,2.10
2019-05-16T12:38:57.521Z,1.92
2019-05-16T12:41:28.687Z,2.55
2019-05-16T12:43:58.109Z,1.85
2019-05-16T12:46:27.353Z,2.10
2019-05-16T12:48:57.530Z,2.05
2019-05-16T12:51:27.113Z,2.83
2019-05-16T12:53:57.253Z,2.70
2019-05-16T12:56:27.308Z,2.02
2019-05-16T12:58:56.687Z,2.00
2019-05-16T13:01:30.460Z,1.95
2019-05-16T13:03:56.969Z,2.50
2019-05-16T13:06:27.754Z,1.82
2019-05-16T13:08:57.379Z,4.50
2019-05-16T13:11:27.106Z,16.15
2019-05-16T13:14:03.455Z,15.75
2019-05-16T13:16:28.294Z,2.33
2019-05-16T13:18:57.713Z,2.10
2019-05-16T13:21:27.527Z,2.55
2019-05-16T13:23:57.527Z,2.62
2019-05-16T13:26:27.179Z,2.02
2019-05-16T13:29:17.836Z,2.58
2019-05-16T13:31:47.833Z,2.42
2019-05-16T13:34:17.903Z,2.42
2019-05-16T13:36:47.704Z,2.55
2019-05-16T13:39:17.345Z,2.42
2019-05-16T13:41:46.712Z,4.12
2019-05-16T13:44:22.065Z,17.02
2019-05-16T13:46:46.974Z,5.95
2019-05-16T13:49:17.994Z,2.70
2019-05-16T13:51:47.272Z,2.60
2019-05-16T13:54:17.759Z,2.30
2019-05-16T13:56:48.294Z,1.92
2019-05-16T13:59:18.042Z,2.35
2019-05-16T14:01:47.280Z,2.35
2019-05-16T14:04:17.306Z,2.72
2019-05-16T14:06:47.619Z,2.75
2019-05-16T14:09:17.289Z,2.72
2019-05-16T14:11:47.118Z,2.20
2019-05-16T14:14:21.086Z,3.35
2019-05-16T14:16:47.424Z,2.50
2019-05-16T14:19:17.437Z,2.80
2019-05-16T14:21:48.017Z,3.00
2019-05-16T14:24:18.098Z,2.33
2019-05-16T14:26:47.805Z,2.58
2019-05-16T14:29:17.738Z,3.02
2019-05-16T14:31:47.385Z,2.50
2019-05-16T14:34:18.092Z,2.50
2019-05-16T14:36:47.710Z,2.60
2019-05-16T14:39:19.316Z,2.67
2019-05-16T14:41:50.666Z,2.77
2019-05-16T14:44:20.067Z,3.30
2019-05-16T14:46:49.676Z,2.70
2019-05-16T14:49:19.003Z,3.10
2019-05-16T14:51:48.351Z,2.90
2019-05-16T14:54:18.168Z,2.92
2019-05-16T14:56:47.781Z,3.60
2019-05-16T14:59:18.070Z,2.95
2019-05-16T15:01:47.514Z,3.05
2019-05-16T15:04:16.874Z,3.02
2019-05-16T15:06:46.977Z,3.20
2019-05-16T15:09:17.394Z,2.83
2019-05-16T15:11:47.121Z,2.80
2019-05-16T15:14:17.356Z,2.77
2019-05-16T15:16:47.870Z,2.62
2019-05-16T15:19:18.298Z,3.00
2019-05-16T15:21:47.878Z,2.02
2019-05-16T15:24:17.926Z,2.33
2019-05-16T15:26:47.487Z,2.12
2019-05-16T15:29:16.892Z,1.95
2019-05-16T15:31:46.880Z,2.27
2019-05-16T15:34:16.328Z,1.95
2019-05-16T15:36:46.659Z,2.27
2019-05-16T15:39:17.029Z,2.00
2019-05-16T15:41:46.729Z,2.27
2019-05-16T15:44:17.182Z,2.12
2019-05-16T15:46:47.838Z,1.80
2019-05-16T15:49:17.826Z,2.05
2019-05-16T15:51:48.831Z,2.10
2019-05-16T15:54:22.790Z,2.30
2019-05-16T15:56:52.106Z,2.10
2019-05-16T15:59:21.365Z,1.90
2019-05-16T16:01:50.745Z,2.30
2019-05-16T16:04:20.096Z,1.80
2019-05-16T16:06:49.467Z,1.95
2019-05-16T16:09:18.723Z,2.15
2019-05-16T16:11:48.704Z,1.95
2019-05-16T16:14:18.180Z,2.15
2019-05-16T16:16:47.507Z,2.05
2019-05-16T16:19:17.477Z,2.10
2019-05-16T16:21:47.367Z,2.30
2019-05-16T16:24:19.047Z,2.30
2019-05-16T16:26:47.767Z,2.20
2019-05-16T16:29:17.173Z,2.25
2019-05-16T16:31:47.674Z,2.77
2019-05-16T16:34:17.707Z,2.75
2019-05-16T16:36:47.694Z,3.10
2019-05-16T16:39:17.350Z,3.33
2019-05-16T16:41:47.850Z,2.83
2019-05-16T16:44:18.078Z,3.15
2019-05-16T16:46:47.556Z,2.98
2019-05-16T16:49:17.417Z,2.83
2019-05-16T16:51:48.063Z,3.40
2019-05-16T16:54:17.660Z,3.22
2019-05-16T16:56:47.452Z,3.30
2019-05-16T16:59:17.726Z,3.95
2019-05-16T17:01:47.270Z,3.70
2019-05-16T17:04:17.494Z,3.60
2019-05-16T17:06:47.155Z,3.50
2019-05-16T17:09:16.633Z,4.25
2019-05-16T17:11:46.530Z,3.87
2019-05-16T17:14:17.416Z,4.00
2019-05-16T17:16:47.399Z,4.28
2019-05-16T17:19:16.883Z,3.42
2019-05-16T17:22:00.330Z,4.15
2019-05-16T17:24:17.287Z,3.87
2019-05-16T17:26:47.793Z,3.55
2019-05-16T17:29:17.360Z,3.62
2019-05-16T17:31:53.607Z,3.62
2019-05-16T17:34:17.663Z,4.22
2019-05-16T17:36:47.003Z,3.62
2019-05-16T17:39:18.221Z,3.87
2019-05-16T17:41:52.066Z,3.42
2019-05-16T17:44:18.329Z,3.58
2019-05-16T17:46:47.708Z,3.58
2019-05-16T17:49:18.321Z,3.72
2019-05-16T17:51:47.751Z,4.00
2019-05-16T17:54:17.355Z,4.08
2019-05-16T17:56:46.725Z,4.22
2019-05-16T17:59:17.059Z,4.20
2019-05-16T18:01:46.635Z,3.67
2019-05-16T18:04:17.166Z,3.35
2019-05-16T18:06:47.263Z,3.72
2019-05-16T18:09:17.185Z,3.90
2019-05-16T18:11:46.911Z,3.40
2019-05-16T18:14:17.194Z,3.08
2019-05-16T18:16:53.666Z,2.37
2019-05-16T18:19:17.869Z,2.90
2019-05-16T18:21:47.080Z,3.20
2019-05-16T18:24:16.780Z,3.15
2019-05-16T18:26:46.216Z,3.08
2019-05-16T18:29:16.341Z,2.70
2019-05-16T18:31:47.168Z,3.15
2019-05-16T18:34:17.006Z,2.80
2019-05-16T18:36:49.556Z,3.35
2019-05-16T18:39:18.827Z,3.42
2019-05-16T18:41:48.224Z,3.25
2019-05-16T18:44:17.594Z,2.83
2019-05-16T18:46:47.207Z,3.40
2019-05-16T18:49:16.605Z,3.10
2019-05-16T18:51:46.538Z,3.17
2019-05-16T18:54:17.273Z,3.30
2019-05-16T18:56:47.406Z,3.30
2019-05-16T18:59:16.942Z,2.90
2019-05-16T19:01:46.928Z,3.33
2019-05-16T19:04:17.581Z,2.72
2019-05-16T19:06:47.085Z,3.08
2019-05-16T19:09:16.700Z,2.98
2019-05-16T19:11:46.651Z,3.35
2019-05-16T19:14:16.928Z,3.35
2019-05-16T19:16:48.948Z,2.90
2019-05-16T19:19:17.451Z,2.77
2019-05-16T19:21:46.780Z,2.80
2019-05-16T19:24:16.496Z,3.15
2019-05-16T19:26:46.926Z,2.47
2019-05-16T19:29:17.351Z,3.08
2019-05-16T19:31:49.917Z,3.05
2019-05-16T19:34:17.814Z,3.10
2019-05-16T19:36:47.184Z,2.70
2019-05-16T19:39:16.895Z,3.02
2019-05-16T19:41:46.626Z,2.83
2019-05-16T19:44:16.835Z,2.90
2019-05-16T19:46:46.852Z,2.83
2019-05-16T19:49:16.475Z,2.75
2019-05-16T19:51:48.517Z,2.90
2019-05-16T19:54:17.209Z,2.77
2019-05-16T19:56:46.952Z,2.90
2019-05-16T19:59:16.956Z,3.25
2019-05-16T20:01:46.533Z,2.80
2019-05-16T20:04:18.298Z,3.27
2019-05-16T20:06:47.503Z,2.75
2019-05-16T20:09:16.966Z,2.55
2019-05-16T20:11:46.468Z,3.00
2019-05-16T20:14:16.947Z,2.47
2019-05-16T20:16:47.177Z,2.72
2019-05-16T20:19:17.343Z,3.30
2019-05-16T20:21:47.610Z,2.85
2019-05-16T20:24:17.324Z,2.62
2019-05-16T20:26:48.357Z,2.60
2019-05-16T20:29:17.718Z,3.27
2019-05-16T20:31:47.558Z,3.20
2019-05-16T20:34:17.570Z,3.00
2019-05-16T20:36:47.277Z,3.30
2019-05-16T20:39:17.378Z,2.90
2019-05-16T20:41:47.539Z,3.10
2019-05-16T20:44:17.429Z,2.50
2019-05-16T20:46:49.592Z,3.15
2019-05-16T20:49:18.509Z,3.15
2019-05-16T20:51:50.033Z,3.00
2019-05-16T20:54:18.729Z,3.20
2019-05-16T20:56:49.460Z,3.05
2019-05-16T20:59:18.942Z,3.33
2019-05-16T21:01:49.235Z,2.92
2019-05-16T21:04:18.907Z,3.37
2019-05-16T21:07:00.415Z,3.10
2019-05-16T21:09:19.369Z,3.85
2019-05-16T21:11:50.124Z,2.87
2019-05-16T21:14:19.481Z,3.08
2019-05-16T21:16:49.603Z,3.35
2019-05-16T21:19:19.068Z,3.08
2019-05-16T21:21:48.854Z,2.95
2019-05-16T21:24:18.110Z,2.77
2019-05-16T21:26:47.488Z,3.35
2019-05-16T21:29:19.529Z,3.00
2019-05-16T21:31:49.064Z,3.45
2019-05-16T21:34:19.171Z,3.10
2019-05-16T21:36:48.710Z,2.85
2019-05-16T21:39:18.844Z,3.47
2019-05-16T21:41:48.072Z,3.33
2019-05-16T21:44:17.323Z,3.52
2019-05-16T21:46:47.099Z,3.83
2019-05-16T21:49:19.263Z,3.50
2019-05-16T21:51:47.361Z,3.85
2019-05-16T21:54:16.681Z,3.58
2019-05-16T21:56:47.442Z,3.92
2019-05-16T21:59:16.733Z,3.50
2019-05-16T22:01:47.258Z,4.05
2019-05-16T22:04:16.823Z,3.65
2019-05-16T22:06:47.468Z,3.87
2019-05-16T22:09:16.986Z,4.05
2019-05-16T22:11:46.603Z,4.05
2019-05-16T22:14:18.456Z,3.65
2019-05-16T22:16:47.800Z,4.10
2019-05-16T22:19:17.432Z,4.10
2019-05-16T22:21:46.789Z,4.37
2019-05-16T22:24:17.236Z,5.10
2019-05-16T22:26:46.739Z,4.20
2019-05-16T22:29:17.049Z,4.45
2019-05-16T22:31:47.087Z,5.10
2019-05-16T22:34:17.003Z,4.75
2019-05-16T22:36:49.229Z,5.33
2019-05-16T22:39:17.476Z,4.55
2019-05-16T22:41:46.769Z,4.78
2019-05-16T22:44:17.625Z,5.03
2019-05-16T22:46:47.251Z,4.72
2019-05-16T22:49:16.960Z,5.37
2019-05-16T22:51:46.426Z,5.05
2019-05-16T22:54:17.180Z,5.33
2019-05-16T22:56:46.623Z,5.10
2019-05-16T22:59:16.614Z,5.72
2019-05-16T23:01:46.094Z,5.47
2019-05-16T23:04:16.799Z,5.53
2019-05-16T23:06:46.196Z,5.35
2019-05-16T23:09:16.405Z,4.72
2019-05-16T23:11:45.775Z,6.05
2019-05-16T23:14:17.086Z,5.47
2019-05-16T23:16:46.491Z,5.85
2019-05-16T23:19:17.149Z,5.47
2019-05-16T23:21:47.467Z,5.90
2019-05-16T23:24:17.315Z,5.55
2019-05-16T23:26:47.050Z,6.25
2019-05-16T23:29:16.991Z,5.80
2019-05-16T23:31:47.197Z,5.97
2019-05-16T23:34:18.690Z,7.10
2019-05-16T23:36:47.699Z,6.37
2019-05-16T23:39:16.977Z,6.62
2019-05-16T23:41:47.440Z,5.78
2019-05-16T23:44:16.900Z,5.97
2019-05-16T23:46:47.102Z,6.20
2019-05-16T23:49:16.864Z,6.03
2019-05-16T23:51:47.374Z,6.78
2019-05-16T23:54:17.365Z,6.55
2019-05-16T23:56:46.731Z,6.50
2019-05-16T23:59:17.137Z,6.95
